sensor_id;sensor_type;location;lat;lon;timestamp;P1;durP1;ratioP1;P2;durP2;ratioP2
75645;SDS011;64237;52.438;13.240;2023-04-06T00:00:08;7.35;;;2.80;;
75645;SDS011;64237;52.438;13.240;2023-04-06T00:02:34;4.45;;;2.15;;
75645;SDS011;64237;52.438;13.240;2023-04-06T00:05:00;6.90;;;2.67;;
75645;SDS011;64237;52.438;13.240;2023-04-06T00:07:26;6.78;;;2.55;;
75645;SDS011;64237;52.438;13.240;2023-04-06T00:09:53;6.90;;;2.53;;
75645;SDS011;64237;52.438;13.240;2023-04-06T00:12:18;6.30;;;2.50;;
75645;SDS011;64237;52.438;13.240;2023-04-06T00:14:43;7.40;;;3.00;;
75645;SDS011;64237;52.438;13.240;2023-04-06T00:17:09;7.32;;;2.67;;
75645;SDS011;64237;52.438;13.240;2023-04-06T00:19:34;7.70;;;2.60;;
75645;SDS011;64237;52.438;13.240;2023-04-06T00:22:00;8.13;;;3.05;;
75645;SDS011;64237;52.438;13.240;2023-04-06T00:24:27;6.43;;;2.58;;
75645;SDS011;64237;52.438;13.240;2023-04-06T00:26:52;5.72;;;2.63;;
75645;SDS011;64237;52.438;13.240;2023-04-06T00:29:17;10.82;;;3.03;;
75645;SDS011;64237;52.438;13.240;2023-04-06T00:31:43;5.65;;;2.35;;
75645;SDS011;64237;52.438;13.240;2023-04-06T00:34:09;9.77;;;2.75;;
75645;SDS011;64237;52.438;13.240;2023-04-06T00:36:35;8.95;;;2.65;;
75645;SDS011;64237;52.438;13.240;2023-04-06T00:39:00;5.25;;;2.25;;
75645;SDS011;64237;52.438;13.240;2023-04-06T00:41:26;7.90;;;3.15;;
75645;SDS011;64237;52.438;13.240;2023-04-06T00:43:51;6.82;;;2.72;;
75645;SDS011;64237;52.438;13.240;2023-04-06T00:46:16;7.13;;;2.70;;
75645;SDS011;64237;52.438;13.240;2023-04-06T00:48:42;8.20;;;2.97;;
75645;SDS011;64237;52.438;13.240;2023-04-06T00:51:07;9.68;;;2.95;;
75645;SDS011;64237;52.438;13.240;2023-04-06T00:53:33;6.30;;;2.50;;
75645;SDS011;64237;52.438;13.240;2023-04-06T00:55:58;7.70;;;2.70;;
75645;SDS011;64237;52.438;13.240;2023-04-06T00:58:23;6.07;;;2.47;;
75645;SDS011;64237;52.438;13.240;2023-04-06T01:00:49;6.70;;;2.67;;
75645;SDS011;64237;52.438;13.240;2023-04-06T01:03:15;7.35;;;2.75;;
75645;SDS011;64237;52.438;13.240;2023-04-06T01:05:40;6.60;;;2.63;;
75645;SDS011;64237;52.438;13.240;2023-04-06T01:08:07;8.10;;;2.72;;
75645;SDS011;64237;52.438;13.240;2023-04-06T01:10:33;7.72;;;2.70;;
75645;SDS011;64237;52.438;13.240;2023-04-06T01:12:58;7.95;;;2.55;;
75645;SDS011;64237;52.438;13.240;2023-04-06T01:15:23;6.40;;;2.75;;
75645;SDS011;64237;52.438;13.240;2023-04-06T01:17:49;8.32;;;2.97;;
75645;SDS011;64237;52.438;13.240;2023-04-06T01:20:15;7.72;;;2.92;;
75645;SDS011;64237;52.438;13.240;2023-04-06T01:22:40;7.75;;;2.90;;
75645;SDS011;64237;52.438;13.240;2023-04-06T01:25:06;10.52;;;2.92;;
75645;SDS011;64237;52.438;13.240;2023-04-06T01:27:32;6.20;;;2.70;;
75645;SDS011;64237;52.438;13.240;2023-04-06T01:29:57;8.25;;;2.83;;
75645;SDS011;64237;52.438;13.240;2023-04-06T01:32:23;7.95;;;2.97;;
75645;SDS011;64237;52.438;13.240;2023-04-06T01:34:48;9.98;;;2.90;;
75645;SDS011;64237;52.438;13.240;2023-04-06T01:37:14;7.40;;;2.67;;
75645;SDS011;64237;52.438;13.240;2023-04-06T01:39:39;10.55;;;3.15;;
75645;SDS011;64237;52.438;13.240;2023-04-06T01:42:06;7.43;;;2.97;;
75645;SDS011;64237;52.438;13.240;2023-04-06T01:44:31;8.32;;;2.70;;
75645;SDS011;64237;52.438;13.240;2023-04-06T01:46:57;7.45;;;3.15;;
75645;SDS011;64237;52.438;13.240;2023-04-06T01:49:22;5.93;;;2.63;;
75645;SDS011;64237;52.438;13.240;2023-04-06T01:51:47;8.75;;;2.90;;
75645;SDS011;64237;52.438;13.240;2023-04-06T01:54:13;8.02;;;3.00;;
75645;SDS011;64237;52.438;13.240;2023-04-06T01:56:38;6.80;;;3.00;;
75645;SDS011;64237;52.438;13.240;2023-04-06T01:59:03;6.57;;;2.88;;
75645;SDS011;64237;52.438;13.240;2023-04-06T02:01:29;7.82;;;2.95;;
75645;SDS011;64237;52.438;13.240;2023-04-06T02:03:54;7.53;;;2.72;;
75645;SDS011;64237;52.438;13.240;2023-04-06T02:06:20;7.10;;;2.90;;
75645;SDS011;64237;52.438;13.240;2023-04-06T02:08:45;7.85;;;3.03;;
75645;SDS011;64237;52.438;13.240;2023-04-06T02:11:11;7.43;;;3.30;;
75645;SDS011;64237;52.438;13.240;2023-04-06T02:13:36;7.88;;;2.70;;
75645;SDS011;64237;52.438;13.240;2023-04-06T02:16:01;8.88;;;3.22;;
75645;SDS011;64237;52.438;13.240;2023-04-06T02:18:27;6.88;;;2.55;;
75645;SDS011;64237;52.438;13.240;2023-04-06T02:20:54;6.90;;;2.78;;
75645;SDS011;64237;52.438;13.240;2023-04-06T02:23:20;6.75;;;2.50;;
75645;SDS011;64237;52.438;13.240;2023-04-06T02:25:46;11.23;;;2.90;;
75645;SDS011;64237;52.438;13.240;2023-04-06T02:28:11;8.32;;;2.97;;
75645;SDS011;64237;52.438;13.240;2023-04-06T02:30:36;7.78;;;2.72;;
75645;SDS011;64237;52.438;13.240;2023-04-06T02:33:02;5.97;;;2.58;;
75645;SDS011;64237;52.438;13.240;2023-04-06T02:35:28;6.57;;;3.03;;
75645;SDS011;64237;52.438;13.240;2023-04-06T02:37:54;6.10;;;2.65;;
75645;SDS011;64237;52.438;13.240;2023-04-06T02:40:19;7.95;;;3.05;;
75645;SDS011;64237;52.438;13.240;2023-04-06T02:42:45;8.27;;;3.35;;
75645;SDS011;64237;52.438;13.240;2023-04-06T02:45:10;7.18;;;3.03;;
75645;SDS011;64237;52.438;13.240;2023-04-06T02:47:36;8.23;;;2.90;;
75645;SDS011;64237;52.438;13.240;2023-04-06T02:50:01;7.47;;;3.00;;
75645;SDS011;64237;52.438;13.240;2023-04-06T02:52:27;11.50;;;2.88;;
75645;SDS011;64237;52.438;13.240;2023-04-06T02:54:52;7.07;;;2.58;;
75645;SDS011;64237;52.438;13.240;2023-04-06T02:57:17;8.93;;;2.78;;
75645;SDS011;64237;52.438;13.240;2023-04-06T02:59:43;8.27;;;3.05;;
75645;SDS011;64237;52.438;13.240;2023-04-06T03:02:08;9.45;;;3.22;;
75645;SDS011;64237;52.438;13.240;2023-04-06T03:04:33;7.10;;;2.80;;
75645;SDS011;64237;52.438;13.240;2023-04-06T03:06:59;5.95;;;2.75;;
75645;SDS011;64237;52.438;13.240;2023-04-06T03:09:24;8.73;;;3.08;;
75645;SDS011;64237;52.438;13.240;2023-04-06T03:11:50;7.95;;;3.15;;
75645;SDS011;64237;52.438;13.240;2023-04-06T03:14:15;6.78;;;2.97;;
75645;SDS011;64237;52.438;13.240;2023-04-06T03:16:42;7.50;;;2.78;;
75645;SDS011;64237;52.438;13.240;2023-04-06T03:19:08;6.53;;;2.70;;
75645;SDS011;64237;52.438;13.240;2023-04-06T03:21:33;10.27;;;3.50;;
75645;SDS011;64237;52.438;13.240;2023-04-06T03:23:58;8.57;;;3.28;;
75645;SDS011;64237;52.438;13.240;2023-04-06T03:26:24;8.32;;;2.85;;
75645;SDS011;64237;52.438;13.240;2023-04-06T03:28:49;8.40;;;2.92;;
75645;SDS011;64237;52.438;13.240;2023-04-06T03:31:15;7.65;;;3.30;;
75645;SDS011;64237;52.438;13.240;2023-04-06T03:33:40;8.18;;;3.10;;
75645;SDS011;64237;52.438;13.240;2023-04-06T03:36:06;7.13;;;3.13;;
75645;SDS011;64237;52.438;13.240;2023-04-06T03:38:31;8.10;;;3.05;;
75645;SDS011;64237;52.438;13.240;2023-04-06T03:40:57;8.68;;;3.42;;
75645;SDS011;64237;52.438;13.240;2023-04-06T03:43:22;8.25;;;3.13;;
75645;SDS011;64237;52.438;13.240;2023-04-06T03:45:48;6.78;;;3.08;;
75645;SDS011;64237;52.438;13.240;2023-04-06T03:48:13;8.00;;;3.17;;
75645;SDS011;64237;52.438;13.240;2023-04-06T03:50:38;7.18;;;2.75;;
75645;SDS011;64237;52.438;13.240;2023-04-06T03:53:04;9.63;;;3.35;;
75645;SDS011;64237;52.438;13.240;2023-04-06T03:55:29;5.78;;;2.70;;
75645;SDS011;64237;52.438;13.240;2023-04-06T03:57:55;6.85;;;2.97;;
75645;SDS011;64237;52.438;13.240;2023-04-06T04:00:20;7.03;;;3.20;;
75645;SDS011;64237;52.438;13.240;2023-04-06T04:02:46;9.93;;;3.20;;
75645;SDS011;64237;52.438;13.240;2023-04-06T04:05:11;6.90;;;2.88;;
75645;SDS011;64237;52.438;13.240;2023-04-06T04:07:37;7.75;;;3.38;;
75645;SDS011;64237;52.438;13.240;2023-04-06T04:10:02;7.88;;;3.05;;
75645;SDS011;64237;52.438;13.240;2023-04-06T04:12:28;7.75;;;3.35;;
75645;SDS011;64237;52.438;13.240;2023-04-06T04:14:53;10.75;;;3.47;;
75645;SDS011;64237;52.438;13.240;2023-04-06T04:17:18;8.98;;;3.40;;
75645;SDS011;64237;52.438;13.240;2023-04-06T04:19:45;7.35;;;2.95;;
75645;SDS011;64237;52.438;13.240;2023-04-06T04:22:10;7.38;;;2.92;;
75645;SDS011;64237;52.438;13.240;2023-04-06T04:24:35;8.77;;;3.05;;
75645;SDS011;64237;52.438;13.240;2023-04-06T04:27:01;9.13;;;3.30;;
75645;SDS011;64237;52.438;13.240;2023-04-06T04:29:26;10.55;;;3.35;;
75645;SDS011;64237;52.438;13.240;2023-04-06T04:31:52;7.40;;;3.28;;
75645;SDS011;64237;52.438;13.240;2023-04-06T04:34:17;10.98;;;3.33;;
75645;SDS011;64237;52.438;13.240;2023-04-06T04:36:45;8.90;;;3.88;;
75645;SDS011;64237;52.438;13.240;2023-04-06T04:39:11;7.60;;;3.08;;
75645;SDS011;64237;52.438;13.240;2023-04-06T04:41:36;6.78;;;3.10;;
75645;SDS011;64237;52.438;13.240;2023-04-06T04:44:01;7.47;;;3.20;;
75645;SDS011;64237;52.438;13.240;2023-04-06T04:46:27;8.95;;;3.40;;
75645;SDS011;64237;52.438;13.240;2023-04-06T04:48:52;9.43;;;3.78;;
75645;SDS011;64237;52.438;13.240;2023-04-06T04:51:18;9.02;;;3.50;;
75645;SDS011;64237;52.438;13.240;2023-04-06T04:53:44;17.17;;;3.58;;
75645;SDS011;64237;52.438;13.240;2023-04-06T04:56:10;9.85;;;3.22;;
75645;SDS011;64237;52.438;13.240;2023-04-06T04:58:35;10.30;;;3.72;;
75645;SDS011;64237;52.438;13.240;2023-04-06T05:01:01;10.00;;;3.70;;
75645;SDS011;64237;52.438;13.240;2023-04-06T05:03:27;8.80;;;3.42;;
75645;SDS011;64237;52.438;13.240;2023-04-06T05:05:52;8.40;;;3.55;;
75645;SDS011;64237;52.438;13.240;2023-04-06T05:08:18;10.80;;;3.70;;
75645;SDS011;64237;52.438;13.240;2023-04-06T05:10:43;6.50;;;2.83;;
75645;SDS011;64237;52.438;13.240;2023-04-06T05:13:10;8.23;;;3.15;;
75645;SDS011;64237;52.438;13.240;2023-04-06T05:15:35;10.15;;;3.65;;
75645;SDS011;64237;52.438;13.240;2023-04-06T05:18:03;9.65;;;3.55;;
75645;SDS011;64237;52.438;13.240;2023-04-06T05:20:29;10.32;;;3.95;;
75645;SDS011;64237;52.438;13.240;2023-04-06T05:22:54;7.22;;;3.30;;
75645;SDS011;64237;52.438;13.240;2023-04-06T05:25:19;7.65;;;2.97;;
75645;SDS011;64237;52.438;13.240;2023-04-06T05:27:45;9.10;;;3.38;;
75645;SDS011;64237;52.438;13.240;2023-04-06T05:30:10;9.32;;;3.85;;
75645;SDS011;64237;52.438;13.240;2023-04-06T05:32:36;10.23;;;4.03;;
75645;SDS011;64237;52.438;13.240;2023-04-06T05:35:01;8.80;;;3.55;;
75645;SDS011;64237;52.438;13.240;2023-04-06T05:37:27;10.23;;;4.28;;
75645;SDS011;64237;52.438;13.240;2023-04-06T05:39:52;11.60;;;4.22;;
75645;SDS011;64237;52.438;13.240;2023-04-06T05:42:17;11.70;;;4.53;;
75645;SDS011;64237;52.438;13.240;2023-04-06T05:44:43;9.40;;;3.88;;
75645;SDS011;64237;52.438;13.240;2023-04-06T05:47:08;9.88;;;3.92;;
75645;SDS011;64237;52.438;13.240;2023-04-06T05:49:34;11.75;;;3.95;;
75645;SDS011;64237;52.438;13.240;2023-04-06T05:52:00;10.52;;;4.15;;
75645;SDS011;64237;52.438;13.240;2023-04-06T05:54:26;10.95;;;4.25;;
75645;SDS011;64237;52.438;13.240;2023-04-06T05:56:51;13.40;;;4.43;;
75645;SDS011;64237;52.438;13.240;2023-04-06T05:59:17;11.23;;;4.30;;
75645;SDS011;64237;52.438;13.240;2023-04-06T06:01:42;10.43;;;4.55;;
75645;SDS011;64237;52.438;13.240;2023-04-06T06:04:07;11.95;;;5.85;;
75645;SDS011;64237;52.438;13.240;2023-04-06T06:06:33;12.25;;;5.15;;
75645;SDS011;64237;52.438;13.240;2023-04-06T06:08:58;10.82;;;5.75;;
75645;SDS011;64237;52.438;13.240;2023-04-06T06:11:28;13.95;;;5.72;;
75645;SDS011;64237;52.438;13.240;2023-04-06T06:13:54;12.50;;;6.03;;
75645;SDS011;64237;52.438;13.240;2023-04-06T06:16:19;11.63;;;5.75;;
75645;SDS011;64237;52.438;13.240;2023-04-06T06:18:45;14.45;;;5.80;;
75645;SDS011;64237;52.438;13.240;2023-04-06T06:21:11;10.50;;;5.13;;
75645;SDS011;64237;52.438;13.240;2023-04-06T06:23:37;10.20;;;5.32;;
75645;SDS011;64237;52.438;13.240;2023-04-06T06:26:03;11.10;;;5.20;;
75645;SDS011;64237;52.438;13.240;2023-04-06T06:28:29;14.52;;;5.00;;
75645;SDS011;64237;52.438;13.240;2023-04-06T06:30:54;11.02;;;4.80;;
75645;SDS011;64237;52.438;13.240;2023-04-06T06:33:20;11.35;;;4.93;;
75645;SDS011;64237;52.438;13.240;2023-04-06T06:35:45;9.48;;;4.75;;
75645;SDS011;64237;52.438;13.240;2023-04-06T06:38:11;10.38;;;4.60;;
75645;SDS011;64237;52.438;13.240;2023-04-06T06:40:36;12.45;;;4.43;;
75645;SDS011;64237;52.438;13.240;2023-04-06T06:43:02;9.98;;;4.20;;
75645;SDS011;64237;52.438;13.240;2023-04-06T06:45:27;9.70;;;4.30;;
75645;SDS011;64237;52.438;13.240;2023-04-06T06:47:54;7.25;;;3.20;;
75645;SDS011;64237;52.438;13.240;2023-04-06T06:50:19;8.27;;;4.30;;
75645;SDS011;64237;52.438;13.240;2023-04-06T06:52:45;11.18;;;4.30;;
75645;SDS011;64237;52.438;13.240;2023-04-06T06:55:10;9.05;;;4.03;;
75645;SDS011;64237;52.438;13.240;2023-04-06T06:57:36;9.13;;;3.75;;
75645;SDS011;64237;52.438;13.240;2023-04-06T07:00:02;10.45;;;3.90;;
75645;SDS011;64237;52.438;13.240;2023-04-06T07:02:30;8.73;;;3.92;;
75645;SDS011;64237;52.438;13.240;2023-04-06T07:04:55;9.63;;;3.85;;
75645;SDS011;64237;52.438;13.240;2023-04-06T07:07:21;8.73;;;3.67;;
75645;SDS011;64237;52.438;13.240;2023-04-06T07:09:46;8.40;;;3.63;;
75645;SDS011;64237;52.438;13.240;2023-04-06T07:12:11;9.13;;;3.60;;
75645;SDS011;64237;52.438;13.240;2023-04-06T07:14:37;7.55;;;3.10;;
75645;SDS011;64237;52.438;13.240;2023-04-06T07:17:02;10.27;;;3.72;;
75645;SDS011;64237;52.438;13.240;2023-04-06T07:19:28;12.20;;;3.78;;
75645;SDS011;64237;52.438;13.240;2023-04-06T07:21:53;10.93;;;3.60;;
75645;SDS011;64237;52.438;13.240;2023-04-06T07:24:19;7.75;;;3.25;;
75645;SDS011;64237;52.438;13.240;2023-04-06T07:26:44;7.32;;;3.30;;
75645;SDS011;64237;52.438;13.240;2023-04-06T07:29:10;7.18;;;2.97;;
75645;SDS011;64237;52.438;13.240;2023-04-06T07:31:35;8.32;;;2.78;;
75645;SDS011;64237;52.438;13.240;2023-04-06T07:34:01;8.73;;;3.03;;
75645;SDS011;64237;52.438;13.240;2023-04-06T07:36:26;6.47;;;2.80;;
75645;SDS011;64237;52.438;13.240;2023-04-06T07:38:52;5.95;;;2.45;;
75645;SDS011;64237;52.438;13.240;2023-04-06T07:41:17;7.57;;;3.00;;
75645;SDS011;64237;52.438;13.240;2023-04-06T07:43:42;8.57;;;3.08;;
75645;SDS011;64237;52.438;13.240;2023-04-06T07:46:08;6.30;;;1.45;;
75645;SDS011;64237;52.438;13.240;2023-04-06T07:48:33;7.70;;;3.13;;
75645;SDS011;64237;52.438;13.240;2023-04-06T07:51:02;6.22;;;2.70;;
75645;SDS011;64237;52.438;13.240;2023-04-06T07:53:28;7.05;;;3.00;;
75645;SDS011;64237;52.438;13.240;2023-04-06T07:55:54;5.93;;;2.53;;
75645;SDS011;64237;52.438;13.240;2023-04-06T07:58:20;9.20;;;3.15;;
75645;SDS011;64237;52.438;13.240;2023-04-06T08:00:49;6.60;;;2.92;;
75645;SDS011;64237;52.438;13.240;2023-04-06T08:03:20;6.53;;;2.50;;
75645;SDS011;64237;52.438;13.240;2023-04-06T08:05:50;8.07;;;2.88;;
75645;SDS011;64237;52.438;13.240;2023-04-06T08:08:15;6.25;;;3.00;;
75645;SDS011;64237;52.438;13.240;2023-04-06T08:10:47;7.32;;;3.03;;
75645;SDS011;64237;52.438;13.240;2023-04-06T08:13:13;6.88;;;2.50;;
75645;SDS011;64237;52.438;13.240;2023-04-06T08:15:45;7.30;;;2.85;;
75645;SDS011;64237;52.438;13.240;2023-04-06T08:18:17;6.18;;;2.85;;
75645;SDS011;64237;52.438;13.240;2023-04-06T08:20:45;6.80;;;2.60;;
75645;SDS011;64237;52.438;13.240;2023-04-06T08:25:37;6.13;;;2.23;;
75645;SDS011;64237;52.438;13.240;2023-04-06T08:28:03;6.07;;;2.38;;
75645;SDS011;64237;52.438;13.240;2023-04-06T08:30:28;5.88;;;2.13;;
75645;SDS011;64237;52.438;13.240;2023-04-06T08:33:06;4.68;;;1.55;;
75645;SDS011;64237;52.438;13.240;2023-04-06T08:35:34;5.78;;;2.13;;
75645;SDS011;64237;52.438;13.240;2023-04-06T08:38:03;3.72;;;1.88;;
75645;SDS011;64237;52.438;13.240;2023-04-06T08:40:28;5.82;;;2.00;;
75645;SDS011;64237;52.438;13.240;2023-04-06T08:42:57;5.90;;;1.90;;
75645;SDS011;64237;52.438;13.240;2023-04-06T08:45:27;5.75;;;1.85;;
75645;SDS011;64237;52.438;13.240;2023-04-06T08:47:56;3.97;;;1.73;;
75645;SDS011;64237;52.438;13.240;2023-04-06T08:50:23;6.65;;;1.90;;
75645;SDS011;64237;52.438;13.240;2023-04-06T08:52:49;5.13;;;2.00;;
75645;SDS011;64237;52.438;13.240;2023-04-06T08:55:21;5.07;;;1.80;;
75645;SDS011;64237;52.438;13.240;2023-04-06T08:57:47;4.43;;;1.67;;
75645;SDS011;64237;52.438;13.240;2023-04-06T09:00:16;5.90;;;1.30;;
75645;SDS011;64237;52.438;13.240;2023-04-06T09:02:43;5.63;;;1.85;;
75645;SDS011;64237;52.438;13.240;2023-04-06T09:05:10;3.55;;;1.30;;
75645;SDS011;64237;52.438;13.240;2023-04-06T09:07:39;3.92;;;1.52;;
75645;SDS011;64237;52.438;13.240;2023-04-06T09:10:05;2.50;;;1.30;;
75645;SDS011;64237;52.438;13.240;2023-04-06T09:12:43;3.22;;;1.48;;
75645;SDS011;64237;52.438;13.240;2023-04-06T09:15:27;3.33;;;1.40;;
75645;SDS011;64237;52.438;13.240;2023-04-06T09:17:56;3.65;;;2.15;;
75645;SDS011;64237;52.438;13.240;2023-04-06T09:20:25;3.08;;;1.38;;
75645;SDS011;64237;52.438;13.240;2023-04-06T09:22:54;5.30;;;1.48;;
75645;SDS011;64237;52.438;13.240;2023-04-06T09:25:21;2.78;;;1.13;;
75645;SDS011;64237;52.438;13.240;2023-04-06T09:28:07;3.05;;;1.20;;
75645;SDS011;64237;52.438;13.240;2023-04-06T09:30:48;3.25;;;1.85;;
75645;SDS011;64237;52.438;13.240;2023-04-06T09:33:23;3.22;;;1.27;;
75645;SDS011;64237;52.438;13.240;2023-04-06T09:35:49;4.35;;;1.48;;
75645;SDS011;64237;52.438;13.240;2023-04-06T09:38:14;2.65;;;1.23;;
75645;SDS011;64237;52.438;13.240;2023-04-06T09:40:50;3.70;;;1.20;;
75645;SDS011;64237;52.438;13.240;2023-04-06T09:43:26;4.50;;;1.30;;
75645;SDS011;64237;52.438;13.240;2023-04-06T09:45:57;2.63;;;1.33;;
75645;SDS011;64237;52.438;13.240;2023-04-06T09:48:25;3.78;;;1.58;;
75645;SDS011;64237;52.438;13.240;2023-04-06T09:50:59;3.35;;;1.40;;
75645;SDS011;64237;52.438;13.240;2023-04-06T09:53:44;2.90;;;1.30;;
75645;SDS011;64237;52.438;13.240;2023-04-06T09:56:20;3.58;;;1.60;;
75645;SDS011;64237;52.438;13.240;2023-04-06T09:58:54;4.05;;;1.83;;
75645;SDS011;64237;52.438;13.240;2023-04-06T10:01:26;3.50;;;1.60;;
75645;SDS011;64237;52.438;13.240;2023-04-06T10:06:38;3.75;;;1.38;;
75645;SDS011;64237;52.438;13.240;2023-04-06T10:09:11;2.58;;;1.30;;
75645;SDS011;64237;52.438;13.240;2023-04-06T10:11:38;4.25;;;1.15;;
75645;SDS011;64237;52.438;13.240;2023-04-06T10:14:04;3.40;;;1.30;;
75645;SDS011;64237;52.438;13.240;2023-04-06T10:16:30;3.83;;;1.73;;
75645;SDS011;64237;52.438;13.240;2023-04-06T10:19:02;4.95;;;1.73;;
75645;SDS011;64237;52.438;13.240;2023-04-06T10:21:34;5.72;;;1.88;;
75645;SDS011;64237;52.438;13.240;2023-04-06T10:24:06;2.80;;;1.45;;
75645;SDS011;64237;52.438;13.240;2023-04-06T10:26:38;4.40;;;1.45;;
75645;SDS011;64237;52.438;13.240;2023-04-06T10:29:13;5.18;;;1.80;;
75645;SDS011;64237;52.438;13.240;2023-04-06T10:31:39;3.92;;;1.50;;
75645;SDS011;64237;52.438;13.240;2023-04-06T10:34:10;5.18;;;1.40;;
75645;SDS011;64237;52.438;13.240;2023-04-06T10:36:39;4.20;;;1.98;;
75645;SDS011;64237;52.438;13.240;2023-04-06T10:39:13;4.30;;;1.77;;
75645;SDS011;64237;52.438;13.240;2023-04-06T10:41:42;3.80;;;1.60;;
75645;SDS011;64237;52.438;13.240;2023-04-06T10:44:28;3.38;;;1.73;;
75645;SDS011;64237;52.438;13.240;2023-04-06T10:46:59;4.18;;;2.00;;
75645;SDS011;64237;52.438;13.240;2023-04-06T10:49:27;3.80;;;1.80;;
75645;SDS011;64237;52.438;13.240;2023-04-06T10:51:53;8.23;;;2.88;;
75645;SDS011;64237;52.438;13.240;2023-04-06T10:54:25;4.30;;;1.70;;
75645;SDS011;64237;52.438;13.240;2023-04-06T10:56:52;6.05;;;2.20;;
75645;SDS011;64237;52.438;13.240;2023-04-06T10:59:21;4.70;;;1.50;;
75645;SDS011;64237;52.438;13.240;2023-04-06T11:01:50;3.47;;;1.50;;
75645;SDS011;64237;52.438;13.240;2023-04-06T11:04:19;4.30;;;1.80;;
75645;SDS011;64237;52.438;13.240;2023-04-06T11:06:46;5.70;;;1.70;;
75645;SDS011;64237;52.438;13.240;2023-04-06T11:09:22;6.13;;;1.90;;
75645;SDS011;64237;52.438;13.240;2023-04-06T11:11:58;4.68;;;2.00;;
75645;SDS011;64237;52.438;13.240;2023-04-06T11:14:23;3.55;;;2.00;;
75645;SDS011;64237;52.438;13.240;2023-04-06T11:16:58;3.40;;;1.80;;
75645;SDS011;64237;52.438;13.240;2023-04-06T11:19:23;4.88;;;1.80;;
75645;SDS011;64237;52.438;13.240;2023-04-06T11:21:49;3.92;;;1.90;;
75645;SDS011;64237;52.438;13.240;2023-04-06T11:29:44;5.63;;;1.92;;
75645;SDS011;64237;52.438;13.240;2023-04-06T11:32:24;4.78;;;2.10;;
75645;SDS011;64237;52.438;13.240;2023-04-06T11:34:57;4.38;;;1.58;;
75645;SDS011;64237;52.438;13.240;2023-04-06T11:37:25;4.75;;;2.08;;
75645;SDS011;64237;52.438;13.240;2023-04-06T11:40:00;5.45;;;1.90;;
75645;SDS011;64237;52.438;13.240;2023-04-06T11:42:27;6.38;;;1.80;;
75645;SDS011;64237;52.438;13.240;2023-04-06T11:44:57;8.13;;;2.50;;
75645;SDS011;64237;52.438;13.240;2023-04-06T11:50:31;6.25;;;2.75;;
75645;SDS011;64237;52.438;13.240;2023-04-06T11:52:59;7.05;;;1.90;;
75645;SDS011;64237;52.438;13.240;2023-04-06T11:55:29;4.80;;;1.88;;
75645;SDS011;64237;52.438;13.240;2023-04-06T11:58:00;2.70;;;1.33;;
75645;SDS011;64237;52.438;13.240;2023-04-06T12:00:25;4.72;;;1.90;;
75645;SDS011;64237;52.438;13.240;2023-04-06T12:02:57;4.07;;;1.98;;
75645;SDS011;64237;52.438;13.240;2023-04-06T12:05:24;4.22;;;1.80;;
75645;SDS011;64237;52.438;13.240;2023-04-06T12:07:56;4.45;;;2.08;;
75645;SDS011;64237;52.438;13.240;2023-04-06T12:10:25;4.38;;;2.05;;
75645;SDS011;64237;52.438;13.240;2023-04-06T12:12:57;5.45;;;1.83;;
75645;SDS011;64237;52.438;13.240;2023-04-06T12:15:28;5.07;;;1.92;;
75645;SDS011;64237;52.438;13.240;2023-04-06T12:17:57;3.03;;;1.63;;
75645;SDS011;64237;52.438;13.240;2023-04-06T12:20:28;5.38;;;1.67;;
75645;SDS011;64237;52.438;13.240;2023-04-06T12:22:54;5.68;;;2.00;;
75645;SDS011;64237;52.438;13.240;2023-04-06T12:25:23;4.53;;;1.90;;
75645;SDS011;64237;52.438;13.240;2023-04-06T12:27:51;4.82;;;2.15;;
75645;SDS011;64237;52.438;13.240;2023-04-06T12:30:20;4.30;;;1.80;;
75645;SDS011;64237;52.438;13.240;2023-04-06T12:33:00;5.18;;;2.13;;
75645;SDS011;64237;52.438;13.240;2023-04-06T12:35:26;3.25;;;1.63;;
75645;SDS011;64237;52.438;13.240;2023-04-06T12:37:52;4.28;;;1.58;;
75645;SDS011;64237;52.438;13.240;2023-04-06T12:40:26;3.80;;;1.75;;
75645;SDS011;64237;52.438;13.240;2023-04-06T12:42:54;5.57;;;1.80;;
75645;SDS011;64237;52.438;13.240;2023-04-06T12:45:20;5.78;;;2.25;;
75645;SDS011;64237;52.438;13.240;2023-04-06T12:47:51;4.32;;;1.85;;
75645;SDS011;64237;52.438;13.240;2023-04-06T12:50:17;5.10;;;1.80;;
75645;SDS011;64237;52.438;13.240;2023-04-06T12:52:42;4.53;;;1.90;;
75645;SDS011;64237;52.438;13.240;2023-04-06T12:55:17;5.13;;;2.13;;
75645;SDS011;64237;52.438;13.240;2023-04-06T12:57:42;4.65;;;1.90;;
75645;SDS011;64237;52.438;13.240;2023-04-06T13:00:23;3.50;;;1.60;;
75645;SDS011;64237;52.438;13.240;2023-04-06T13:02:48;3.53;;;1.90;;
75645;SDS011;64237;52.438;13.240;2023-04-06T13:05:29;3.05;;;1.75;;
75645;SDS011;64237;52.438;13.240;2023-04-06T13:07:57;4.63;;;1.83;;
75645;SDS011;64237;52.438;13.240;2023-04-06T13:10:32;3.85;;;1.70;;
75645;SDS011;64237;52.438;13.240;2023-04-06T13:12:58;2.88;;;1.75;;
75645;SDS011;64237;52.438;13.240;2023-04-06T13:15:23;5.90;;;2.17;;
75645;SDS011;64237;52.438;13.240;2023-04-06T13:17:55;4.07;;;1.83;;
75645;SDS011;64237;52.438;13.240;2023-04-06T13:20:26;4.40;;;1.70;;
75645;SDS011;64237;52.438;13.240;2023-04-06T13:22:58;14.55;;;2.22;;
75645;SDS011;64237;52.438;13.240;2023-04-06T13:25:27;5.28;;;2.00;;
75645;SDS011;64237;52.438;13.240;2023-04-06T13:27:59;4.95;;;1.90;;
75645;SDS011;64237;52.438;13.240;2023-04-06T13:30:24;4.82;;;1.75;;
75645;SDS011;64237;52.438;13.240;2023-04-06T13:33:00;3.92;;;1.92;;
75645;SDS011;64237;52.438;13.240;2023-04-06T13:38:13;3.33;;;1.42;;
75645;SDS011;64237;52.438;13.240;2023-04-06T13:43:23;4.43;;;1.60;;
75645;SDS011;64237;52.438;13.240;2023-04-06T13:45:51;4.90;;;1.75;;
75645;SDS011;64237;52.438;13.240;2023-04-06T13:48:19;3.35;;;1.80;;
75645;SDS011;64237;52.438;13.240;2023-04-06T13:50:47;4.45;;;1.75;;
75645;SDS011;64237;52.438;13.240;2023-04-06T13:53:18;4.15;;;1.60;;
75645;SDS011;64237;52.438;13.240;2023-04-06T13:55:54;5.10;;;1.83;;
75645;SDS011;64237;52.438;13.240;2023-04-06T13:58:20;2.83;;;1.25;;
75645;SDS011;64237;52.438;13.240;2023-04-06T14:00:54;2.80;;;1.40;;
75645;SDS011;64237;52.438;13.240;2023-04-06T14:03:20;4.05;;;1.80;;
75645;SDS011;64237;52.438;13.240;2023-04-06T14:05:50;3.75;;;1.67;;
75645;SDS011;64237;52.438;13.240;2023-04-06T14:08:15;4.07;;;1.90;;
75645;SDS011;64237;52.438;13.240;2023-04-06T14:10:43;3.95;;;1.92;;
75645;SDS011;64237;52.438;13.240;2023-04-06T14:13:15;2.78;;;1.50;;
75645;SDS011;64237;52.438;13.240;2023-04-06T14:15:41;3.33;;;1.67;;
75645;SDS011;64237;52.438;13.240;2023-04-06T14:18:07;4.78;;;1.80;;
75645;SDS011;64237;52.438;13.240;2023-04-06T14:20:33;2.67;;;1.52;;
75645;SDS011;64237;52.438;13.240;2023-04-06T14:23:02;6.07;;;1.88;;
75645;SDS011;64237;52.438;13.240;2023-04-06T14:25:28;5.50;;;1.90;;
75645;SDS011;64237;52.438;13.240;2023-04-06T14:27:56;3.90;;;1.80;;
75645;SDS011;64237;52.438;13.240;2023-04-06T14:30:21;6.53;;;2.20;;
75645;SDS011;64237;52.438;13.240;2023-04-06T14:32:47;4.22;;;2.10;;
75645;SDS011;64237;52.438;13.240;2023-04-06T14:35:13;3.88;;;1.80;;
75645;SDS011;64237;52.438;13.240;2023-04-06T14:37:38;5.00;;;1.90;;
75645;SDS011;64237;52.438;13.240;2023-04-06T14:40:03;5.20;;;1.77;;
75645;SDS011;64237;52.438;13.240;2023-04-06T14:42:29;4.53;;;1.77;;
75645;SDS011;64237;52.438;13.240;2023-04-06T14:44:55;4.13;;;1.90;;
75645;SDS011;64237;52.438;13.240;2023-04-06T14:47:20;4.97;;;1.77;;
75645;SDS011;64237;52.438;13.240;2023-04-06T14:49:50;5.80;;;1.88;;
75645;SDS011;64237;52.438;13.240;2023-04-06T14:52:16;4.28;;;1.70;;